• Join FlightAware (Why Join?)
  • Login
  • US Flag 
01:05PM EDT


 

Airport Tracker/Info


-or-


 

Live Flight TrackerFlight Track Log ✈ UAL4550 ✈ 20-Aug-2014 ✈ KMAF - KIAH

Flight Track Log - Related Links

Times and Time Zones

All times are in EDT time to prevent confusion due to time zone crossing. See the UAL4550 flight status page for this flight to view local times or setup timezone preferences in your user account.

Time Position Orientation Groundspeed Altitude Reporting Facility
EDT Latitude Longitude Course Direction KTS MPH feet Rate Location/Type
11:55AM 31.8861 -102.0681 109° East 214 246 6,400  Level Fort Worth Center
11:56AM 31.7918 -101.7481 113° Southeast  Level FlightAware Approximate
11:56AM 31.8547 -101.9650 110° East 249 287 8,400  Level Fort Worth Center
11:57AM 31.7514 -101.6371 113° Southeast  Level FlightAware Approximate
11:57AM 31.8269 -101.8750 110° East 279 321 10,400  Level Fort Worth Center
11:58AM 31.7221 -101.5216 106° East  Level FlightAware Approximate
11:58AM 31.7981 -101.7836 110° East 289 333 11,400  Level Fort Worth Center
11:59AM 31.9058 -102.1125 103° East  Level FlightAware Approximate
11:59AM 31.7672 -101.6839 110° East 313 360 12,500  Level Fort Worth Center
12:00PM 31.8826 -102.0224 109° East  Level FlightAware Approximate
12:00PM 31.7350 -101.5783 110° East 332 382 13,500  Level Fort Worth Center
12:01PM 31.6994 -101.4678 111° Southeast 351 404 14,500 1,080 Climbing Fort Worth Center
12:02PM 31.6558 -101.3317 111° Southeast 363 418 15,800 1,200 Climbing Fort Worth Center
12:03PM 31.6189 -101.2172 111° Southeast 370 426 17,100 1,440 Climbing Fort Worth Center
12:04PM 31.5850 -101.1086 110° East 366 421 18,900 1,140 Climbing Fort Worth Center
12:05PM 31.5500 -101.0006 111° Southeast 359 413 19,500 540 Climbing Fort Worth Center
12:06PM 31.5139 -100.8856 110° East 366 421 20,100 540 Climbing Fort Worth Center
12:07PM 31.4761 -100.7658 110° East 384 442 20,700 540 Climbing Fort Worth Center
12:08PM 31.4281 -100.6217 111° Southeast 393 452 21,300 540 Climbing Fort Worth Center
12:09PM 31.3894 -100.5019 111° Southeast 394 453 21,900 540 Climbing Fort Worth Center
12:10PM 31.3486 -100.3789 111° Southeast 399 459 22,500 480 Climbing Fort Worth Center
12:11PM 31.3075 -100.2578 112° Southeast 400 460 23,000 480 Climbing Fort Worth Center
12:12PM 31.2647 -100.1328 112° Southeast 403 464 23,600 480 Climbing Fort Worth Center
12:13PM 31.2231 -100.0075 111° Southeast 408 470 24,100 720 Climbing Fort Worth Center
12:15PM 31.1708 -99.8572 112° Southeast 411 473 25,100 1,200 Climbing Fort Worth Center
12:16PM 31.1297 -99.7350 111° Southeast 411 473 26,600 1,440 Climbing Fort Worth Center
12:17PM 31.0908 -99.6256 113° Southeast 379 436 28,100 1,260 Climbing Houston Center
12:18PM 31.0536 -99.5156 112° Southeast 368 423 29,300 1,020 Climbing Houston Center
12:19PM 31.0147 -99.4061 112° Southeast 365 420 30,300 780 Climbing Houston Center
12:20PM 30.9769 -99.2964 112° Southeast 365 420 31,000 300 Climbing Houston Center
12:21PM 30.9272 -99.1550 112° Southeast 390 449 31,000  Level Houston Center
12:22PM 30.8817 -99.0269 112° Southeast 414 476 31,000  Level Houston Center
12:23PM 30.8358 -98.8961 112° Southeast 432 497 31,000  Level Houston Center
12:24PM 30.7994 -98.7581 107° East 449 517 31,000  Level Houston Center
12:25PM 30.8006 -98.6150 89° East 446 513 31,000  Level Houston Center
12:26PM 30.8036 -98.4717 89° East 446 513 31,000  Level Houston Center
12:27PM 30.8064 -98.2989 89° East 446 513 31,000  Level Houston Center
12:28PM 30.8086 -98.1556 89° East 446 513 31,000  Level Houston Center
12:29PM 30.8111 -98.0222 89° East 410 472 31,000  Level Houston Center
12:30PM 30.8122 -97.9028 89° East 376 433 31,000  Level Houston Center
12:31PM 30.8194 -97.7861 86° East 369 425 31,000  Level Houston Center
12:32PM 30.8969 -97.7111 40° Northeast 365 420 31,000  Level Houston Center
12:33PM 30.9303 -97.5944 72° East 344 396 31,100  Climbing Houston Center
12:34PM 30.9189 -97.4811 97° East 346 398 31,000 -60 Descending Houston Center
12:35PM 30.9078 -97.3711 97° East 346 398 31,000  Level Houston Center
12:36PM 30.8972 -97.2597 96° East 346 398 31,000  Level Houston Center
12:37PM 30.8842 -97.1381 97° East 339 390 31,000 -480 Level Houston Center
12:38PM 30.8792 -97.0294 93° East 341 392 30,100 -1,020 Descending Houston Center
12:39PM 30.8717 -96.9228 95° East 334 384 28,900 -1,200 Descending Houston Center
12:40PM 30.8772 -96.8239 86° East 312 359 27,700 -1,320 Descending Houston Center
12:41PM 30.8667 -96.6842 95° East 366 421 26,200 -1,200 Descending Houston Center
12:43PM 30.8533 -96.5478 96° East 422 486 25,300 -1,020 Descending Houston Center
12:44PM 30.8214 -96.4064 105° East 457 526 24,100 -1,380 Descending Houston Center
12:45PM 30.7389 -96.2839 128° Southeast 459 528 22,600 -1,500 Descending Houston Center
12:45PM 30.6978 -96.2206 127° Southeast 438 504 21,700 -1,620 Descending Houston Center
12:46PM 30.6683 -96.1783 129° Southeast 448 516 20,900 -1,980 Descending Houston Center
12:47PM 30.5947 -96.0697 128° Southeast 430 495 18,700 -2,340 Descending Houston Center
12:47PM 30.5447 -95.9978 129° Southeast 394 453 17,300 -2,280 Descending Houston Center
12:48PM 30.5186 -95.9561 126° Southeast 402 463 16,400 -1,260 Descending Houston Center
12:48PM 30.4822 -95.9056 130° Southeast 352 405 16,000 -420 Descending Houston Center
12:49PM 30.4581 -95.8686 127° Southeast 353 406 16,000 -840 Level Houston Center
12:49PM 30.4161 -95.8236 137° Southeast 334 384 15,200 -1,860 Descending Houston Center
12:50PM 30.3903 -95.7961 137° Southeast 341 392 14,100 -2,880 Descending Houston Center
12:50PM 30.3447 -95.7522 140° Southeast 313 360 12,300 -2,940 Descending Houston Center
12:51PM 30.3136 -95.7161 135° Southeast 316 364 11,100 -1,860 Descending Houston Center
12:51PM 30.2936 -95.6953 138° Southeast 285 328 10,600 -1,560 Descending Houston Center
12:52PM 30.2561 -95.6542 137° Southeast 290 334 9,500 -1,800 Descending Houston Center
12:52PM 30.2267 -95.6258 140° Southeast 281 323 8,600 -1,620 Descending Houston Center
12:53PM 30.1989 -95.5956 137° Southeast 281 323 7,800 -1,680 Descending Houston Center
12:53PM 30.1733 -95.5692 138° Southeast 265 305 6,900 -1,680 Descending Houston Center
12:54PM 30.1456 -95.5394 137° Southeast 266 306 6,100 -900 Descending Houston Center
12:54PM 30.1200 -95.5128 138° Southeast 255 293 6,000 -120 Descending Houston Center
12:55PM 30.0928 -95.4839 137° Southeast 259 298 6,000  Level Houston Center
12:55PM 30.0575 -95.4503 140° Southeast 259 298 6,000  Level Houston Center
12:56PM 30.0397 -95.4294 135° Southeast 259 298 6,000  Level Houston Center
12:56PM 30.0067 -95.3983 141° Southeast 261 300 6,000  Level Houston Center
12:57PM 29.9742 -95.3614 135° Southeast 259 298 6,000  Level Houston Center
12:57PM 29.9531 -95.3397 138° Southeast 265 305 6,000  Level Houston Center
12:58PM 29.9317 -95.2933 118° Southeast 263 303 6,000  Level Houston Center
12:58PM 29.9244 -95.2564 103° East 255 293 6,000  Level Houston Center
12:59PM 29.9236 -95.2150 91° East 249 287 6,000  Level Houston Center
01:00PM 29.9236 -95.1794 90° East 236 272 6,000 -120 Level Houston Center
01:00PM 29.9231 -95.1397 91° East 239 275 5,900 -840 Descending Houston Center
01:01PM 29.9206 -95.1025 94° East 235 270 5,200 -1,260 Descending Houston Center
01:01PM 29.9222 -95.0656 87° East 233 268 4,600 -1,140 Descending Houston Center
01:02PM 29.9464 -95.0417 41° Northeast 248 285 4,100 -1,080 Descending Houston Center
01:02PM 29.9744 -95.0472 350° North 248 285 3,500 -1,140 Descending Houston Center
01:03PM 29.9919 -95.0817 300° West 231 266 3,000 -540 Descending Houston Center
01:03PM 29.9933 -95.1267 272° West 229 264 3,000  Level Houston Center
01:03PM 29.9939 -95.1467 272° West 217 250 3,000 -780 Level Houston Center
01:04PM 29.9925 -95.1975 268° West 224 258 2,200 -1,020 Descending Houston Center
01:05PM 29.9928 -95.2697 270° West 151 174 1,100 -840 Descending Houston Center
01:06PM 29.9931 -95.3039 271° West 163 188 500 -360 Descending Houston Center
01:07PM 29.9931 -95.3478 270° West 158 182 400 -120 Descending Houston Center